Welcome to Des Moines Iowa Weather. I am an independent private personal weather station on the Northwest Side of Des Moines, Iowa. Just East of Windsor Heights and just West of Glendale . This site is also mobile friendly.

There are no active watches, warnings or advisories


Visit our other weather sites:

Historical Data

Weather Station Setup



Weather Underground History page Text

Daily Summary for February 13, 2018 Units:  Metric    English   Both
« Previous Day
Next Day »
Daily Weekly Monthly Yearly Custom
  High: Low: Average:
Temperature: 3.6 °C -9.8 °C -3.3 °C
Dew Point: -2.8 °C -15 °C -8.2 °C
Humidity: 80 % 60 % 70 %
Wind Speed: 8 km/h 0 km/h 2.1 km/h
Wind Gust: 17.7 km/h - -
Wind:- - SSE
Pressure: 1039.8 hPa 1021.2 hPa -
Precipitation: 0.25 mm    
Historical Graphs
 
 
Tabular Data for February 13, 2018
Time Temperature Dew Point Pressure Wind Wind Speed Wind Gust Humidity Rainfall Rate (Hourly)
00:07 -9.8 °C -15 °C 1039.5 hPa ENE 1.6 km/h 12.9 km/h 67 % 0 mm
00:22 -9.8 °C -15 °C 1039.8 hPa NE 6.4 km/h 6.4 km/h 67 % 0 mm
00:37 -9.7 °C -15 °C 1039.8 hPa Calm   4.8 km/h 67 % 0 mm
00:52 -9.7 °C -15 °C 1039.8 hPa Calm   4.8 km/h 67 % 0 mm
01:07 -9.7 °C -15 °C 1039.8 hPa East 3.2 km/h 4.8 km/h 67 % 0 mm
01:22 -9.6 °C -14.4 °C 1039.2 hPa ESE 1.6 km/h 6.4 km/h 67 % 0 mm
01:37 -9.6 °C -14.4 °C 1039.5 hPa Calm   9.7 km/h 67 % 0 mm
01:52 -9.6 °C -15 °C 1038.8 hPa SSE 1.6 km/h 9.7 km/h 66 % 0 mm
02:07 -9.6 °C -15 °C 1038.8 hPa SE 3.2 km/h 12.9 km/h 65 % 0 mm
02:22 -9.5 °C -15 °C 1038.8 hPa SE 4.8 km/h 8 km/h 66 % 0 mm
02:39 -9.4 °C -15 °C 1038.5 hPa Calm   9.7 km/h 65 % 0 mm
02:55 -9.3 °C -15 °C 1038.5 hPa Calm   4.8 km/h 65 % 0 mm
03:07 -9.3 °C -15 °C 1037.8 hPa Calm   4.8 km/h 65 % 0 mm
03:23 -9.2 °C -14.4 °C 1037.8 hPa SSE 3.2 km/h 4.8 km/h 66 % 0 mm
03:37 -9.2 °C -14.4 °C 1037.5 hPa SE 1.6 km/h 4.8 km/h 66 % 0 mm
03:52 -9 °C -14.4 °C 1037.1 hPa ENE 3.2 km/h 11.3 km/h 66 % 0 mm
04:07 -8.9 °C -14.4 °C 1037.1 hPa ESE 1.6 km/h 11.3 km/h 65 % 0 mm
04:22 -8.8 °C -14.4 °C 1037.1 hPa Calm   6.4 km/h 65 % 0 mm
04:37 -8.8 °C -14.4 °C 1036.8 hPa ESE 3.2 km/h 4.8 km/h 65 % 0 mm
04:52 -8.8 °C -13.9 °C 1036.5 hPa Calm   6.4 km/h 67 % 0 mm
05:07 -8.8 °C -13.9 °C 1036.1 hPa ESE 3.2 km/h 4.8 km/h 67 % 0 mm
05:22 -8.8 °C -13.9 °C 1036.1 hPa SSE 1.6 km/h 8 km/h 67 % 0 mm
05:38 -8.8 °C -13.9 °C 1035.8 hPa SSE 4.8 km/h 8 km/h 68 % 0 mm
05:53 -8.8 °C -13.9 °C 1035.4 hPa SE 3.2 km/h 11.3 km/h 67 % 0 mm
06:08 -8.8 °C -13.9 °C 1035.1 hPa SSE 4.8 km/h 14.5 km/h 67 % 0 mm
06:23 -8.8 °C -13.9 °C 1034.8 hPa SSE 3.2 km/h 17.7 km/h 68 % 0 mm
06:38 -8.8 °C -13.3 °C 1034.4 hPa South 4.8 km/h 11.3 km/h 69 % 0 mm
06:53 -8.7 °C -13.3 °C 1034.4 hPa ESE 1.6 km/h 8 km/h 70 % 0 mm
07:08 -8.7 °C -13.3 °C 1034.1 hPa SE 1.6 km/h 9.7 km/h 70 % 0 mm
07:23 -8.6 °C -12.8 °C 1034.1 hPa SSE 1.6 km/h 11.3 km/h 71 % 0 mm
07:38 -8.5 °C -12.8 °C 1033.7 hPa SSE 3.2 km/h 16.1 km/h 72 % 0 mm
07:53 -8.3 °C -12.2 °C 1033.4 hPa Calm   12.9 km/h 73 % 0 mm
08:08 -8.1 °C -12.2 °C 1033.7 hPa Calm   14.5 km/h 73 % 0 mm
08:23 -7.7 °C -11.7 °C 1033.7 hPa SSE 4.8 km/h 11.3 km/h 74 % 0 mm
08:38 -7.3 °C -11.1 °C 1033.7 hPa Calm   4.8 km/h 74 % 0 mm
08:53 -7 °C -11.1 °C 1033.4 hPa South 4.8 km/h 9.7 km/h 74 % 0 mm
09:08 -6.6 °C -10.6 °C 1033.4 hPa South 3.2 km/h 11.3 km/h 74 % 0 mm
09:23 -6.1 °C -10 °C 1033.1 hPa SSE 4.8 km/h 11.3 km/h 73 % 0 mm
09:38 -5.7 °C -10 °C 1032.7 hPa ESE 4.8 km/h 9.7 km/h 73 % 0 mm
09:53 -5.6 °C -10 °C 1032.7 hPa SE 6.4 km/h 8 km/h 73 % 0 mm
10:08 -5.2 °C -9.4 °C 1032.4 hPa SSE 3.2 km/h 9.7 km/h 73 % 0 mm
10:23 -4.3 °C -8.3 °C 1032.1 hPa SSW 3.2 km/h 11.3 km/h 73 % 0 mm
10:39 -3.8 °C -8.3 °C 1031.7 hPa SSE 1.6 km/h 9.7 km/h 72 % 0 mm
10:54 -3.1 °C -7.2 °C 1031.4 hPa South 3.2 km/h 6.4 km/h 72 % 0 mm
11:09 -2.4 °C -7.2 °C 1031.4 hPa SE 3.2 km/h 12.9 km/h 71 % 0 mm
11:24 -1.6 °C -6.1 °C 1030.7 hPa SSW 6.4 km/h 9.7 km/h 71 % 0 mm
11:39 -0.9 °C -6.1 °C 1030.4 hPa SW 1.6 km/h 14.5 km/h 69 % 0 mm
11:54 -0.4 °C -5.6 °C 1029.7 hPa SE 3.2 km/h 11.3 km/h 68 % 0 mm
12:09 0.1 °C -5.6 °C 1029.7 hPa SW 1.6 km/h 12.9 km/h 66 % 0 mm
12:24 0.6 °C -5.6 °C 1029 hPa SSE 1.6 km/h 11.3 km/h 65 % 0 mm
12:39 1.2 °C -5 °C 1028.7 hPa SSW 3.2 km/h 11.3 km/h 63 % 0 mm
12:54 1.5 °C -5 °C 1028 hPa South 3.2 km/h 12.9 km/h 63 % 0 mm
13:09 1.7 °C -4.4 °C 1028 hPa SSE 8 km/h 12.9 km/h 63 % 1.78 mm
13:24 1.9 °C -5 °C 1027.7 hPa SSE 3.2 km/h 12.9 km/h 62 % 1.78 mm
13:39 2.3 °C -4.4 °C 1027.3 hPa South 3.2 km/h 11.3 km/h 61 % 1.78 mm
13:54 2.3 °C -4.4 °C 1027 hPa SSE 8 km/h 14.5 km/h 61 % 1.78 mm
14:09 3.5 °C -3.9 °C 1026.6 hPa Calm   3.2 km/h 60 % 0 mm
14:26 3.1 °C -3.9 °C 1026.6 hPa SSE 8 km/h 8 km/h 60 % 0.25 mm
14:40 3 °C -3.9 °C 1026.6 hPa WSW 6.4 km/h 9.7 km/h 61 % 0.25 mm
14:56 3 °C -3.9 °C 1026.3 hPa Calm   8 km/h 62 % 0.25 mm
15:12 3.2 °C -3.3 °C 1026 hPa South 4.8 km/h 12.9 km/h 62 % 0.25 mm
15:25 3.5 °C -3.3 °C 1026 hPa South 3.2 km/h 4.8 km/h 61 % 0 mm
15:43 3.6 °C -3.9 °C 1025.6 hPa Calm   6.4 km/h 60 % 0 mm
15:55 3.3 °C -3.3 °C 1025.6 hPa Calm   8 km/h 62 % 0 mm
16:10 3.3 °C -3.3 °C 1025.3 hPa South 1.6 km/h 8 km/h 62 % 0 mm
16:25 3.2 °C -3.3 °C 1024.9 hPa SSW 1.6 km/h 8 km/h 63 % 0 mm
16:40 2.9 °C -3.3 °C 1024.9 hPa Calm   8 km/h 64 % 0 mm
16:55 2.8 °C -2.8 °C 1024.9 hPa Calm   8 km/h 66 % 0 mm
17:10 2.6 °C -3.3 °C 1024.9 hPa SSE 1.6 km/h 8 km/h 66 % 0 mm
17:25 2.3 °C -3.3 °C 1024.6 hPa Calm   8 km/h 67 % 0 mm
17:40 1.8 °C -3.3 °C 1024.6 hPa Calm   3.2 km/h 69 % 0 mm
17:55 1.4 °C -3.3 °C 1024.3 hPa South 1.6 km/h 6.4 km/h 71 % 0 mm
18:10 1.3 °C -3.3 °C 1023.6 hPa South 3.2 km/h 6.4 km/h 71 % 0 mm
18:25 1.2 °C -3.3 °C 1023.9 hPa Calm   4.8 km/h 72 % 0 mm
18:40 1.1 °C -3.3 °C 1023.9 hPa Calm   8 km/h 72 % 0 mm
18:55 0.7 °C -3.3 °C 1024.3 hPa Calm     73 % 0 mm
19:10 0.5 °C -3.9 °C 1023.9 hPa Calm     74 % 0 mm
19:25 0.2 °C -3.9 °C 1023.9 hPa Calm     75 % 0 mm
19:40 0 °C -3.9 °C 1023.9 hPa Calm     75 % 0 mm
19:55 -0.3 °C -4.4 °C 1023.6 hPa Calm     75 % 0 mm
20:10 -0.8 °C -4.4 °C 1023.6 hPa Calm   4.8 km/h 77 % 0 mm
20:25 -1 °C -4.4 °C 1022.9 hPa Calm   1.6 km/h 78 % 0 mm
20:40 -1 °C -4.4 °C 1022.9 hPa Calm   3.2 km/h 79 % 0 mm
20:55 -1.1 °C -3.9 °C 1022.9 hPa Calm   1.6 km/h 80 % 0 mm
21:10 -1 °C -3.9 °C 1022.6 hPa Calm   1.6 km/h 80 % 0 mm
21:25 -1 °C -3.9 °C 1022.6 hPa Calm   1.6 km/h 80 % 0 mm
21:40 -1.1 °C -3.9 °C 1022.6 hPa Calm     80 % 0 mm
21:55 -1.1 °C -3.9 °C 1022.6 hPa Calm   3.2 km/h 80 % 0 mm
22:10 -1.2 °C -4.4 °C 1022.6 hPa South 3.2 km/h 3.2 km/h 80 % 0 mm
22:25 -1.1 °C -3.9 °C 1022.2 hPa Calm   3.2 km/h 80 % 0 mm
22:40 -1.2 °C -4.4 °C 1022.2 hPa Calm   3.2 km/h 80 % 0 mm
22:55 -1.1 °C -3.9 °C 1022.2 hPa Calm   1.6 km/h 80 % 0 mm
23:10 -0.9 °C -3.9 °C 1021.9 hPa Calm   6.4 km/h 80 % 0 mm
23:25 -0.9 °C -3.9 °C 1021.9 hPa Calm   3.2 km/h 79 % 0 mm
23:41 -1 °C -4.4 °C 1021.6 hPa Calm   1.6 km/h 78 % 0 mm
23:56 -1.2 °C -4.4 °C 1021.2 hPa SSW 1.6 km/h 3.2 km/h 78 % 0 mm
Des Moines Weather and Climate
Compliments of Weather Underground - 3 mb

Script developed by  Jim McMurry - jmcmurry@mwt.net Adapted for the template by  Wim van der Kuil - Leuven-Template.eu

You find our weather info also at:

Weather Underground

Equipment we use:

Weather-station
Davis VP2 Plus

Weather-program
Davis Weatherlink.Com

Weather-server
iMac (Retina 4K, 21.5-inch, Late 2015)

Provider
Hostmonster.com

Davis VP2 Plus

Davis Weatherlink.Com

iMac (Retina 4K, 21.5-inch, Late 2015)

Hostmonster.com